Time;durP1;ratioP1;P1;durP2;ratioP2;P2;SDS_P1;SDS_P2;PMS_P1;PMS_P2;Temp;Humidity;BMP_temperature;BMP_pressure;BME280_temperature;BME280_humidity;BME280_pressure;Samples;Min_cycle;Max_cycle;Signal;HPM_P1;HPM_P2
2023/07/14 00:00:42;;;;;;;;;2.67;1.67;;;;;-147.70;100.00;61350.09;5059395;28;47333;-74
2023/07/14 00:03:11;;;;;;;;;1.33;1.00;;;;;-147.70;100.00;61350.09;5052920;28;46104;-76
2023/07/14 00:05:39;;;;;;;;;4.00;3.67;;;;;-147.70;100.00;61350.09;5056686;28;45485;-80
2023/07/14 00:08:14;;;;;;;;;6.67;2.33;;;;;-147.70;100.00;61350.09;5051578;28;45200;-75
2023/07/14 00:10:39;;;;;;;;;5.00;4.00;;;;;-147.70;100.00;61350.09;5045383;28;46507;-74
2023/07/14 00:13:07;;;;;;;;;5.00;3.00;;;;;-147.70;100.00;61350.09;5047420;28;45264;-79
2023/07/14 00:15:37;;;;;;;;;3.33;3.33;;;;;-147.70;100.00;61350.09;5038329;28;45494;-84
2023/07/14 00:18:29;;;;;;;;;2.33;2.00;;;;;-147.70;100.00;61350.09;5039670;28;45155;-83
2023/07/14 00:20:56;;;;;;;;;3.67;2.00;;;;;-147.70;100.00;61350.09;5038276;28;45517;-84
2023/07/14 00:23:21;;;;;;;;;8.00;3.00;;;;;-147.70;100.00;61350.09;5039154;28;45384;-78
2023/07/14 00:25:46;;;;;;;;;3.33;3.33;;;;;-147.70;100.00;61350.09;5039393;28;45419;-87
2023/07/14 00:28:18;;;;;;;;;7.00;3.00;;;;;-147.70;100.00;61350.09;5039477;28;45220;-79
2023/07/14 00:30:44;;;;;;;;;2.00;2.00;;;;;-147.70;100.00;61350.09;5038842;28;45467;-76
2023/07/14 00:33:15;;;;;;;;;5.33;3.67;;;;;-147.70;100.00;61350.09;5041287;28;45448;-77
2023/07/14 00:35:41;;;;;;;;;3.00;3.00;;;;;-147.70;100.00;61350.09;5048180;28;45167;-79
2023/07/14 00:38:08;;;;;;;;;4.33;3.00;;;;;-147.70;100.00;61350.09;5039194;28;45440;-76
2023/07/14 00:40:39;;;;;;;;;3.33;2.00;;;;;-147.70;100.00;61350.09;5038932;28;45810;-78
2023/07/14 00:43:17;;;;;;;;;7.00;3.00;;;;;-147.70;100.00;61350.09;5038996;28;45321;-74
2023/07/14 00:45:46;;;;;;;;;5.67;2.67;;;;;-147.70;100.00;61350.09;5053437;28;45492;-73
2023/07/14 00:48:15;;;;;;;;;4.67;4.00;;;;;-147.70;100.00;61350.09;5059126;28;45361;-75
2023/07/14 00:50:46;;;;;;;;;5.67;3.00;;;;;-147.70;100.00;61350.09;5058800;28;46448;-73
2023/07/14 00:53:25;;;;;;;;;3.67;3.67;;;;;-147.70;100.00;61350.09;5058935;28;45508;-73
2023/07/14 00:55:56;;;;;;;;;4.00;2.33;;;;;-147.70;100.00;61350.09;5058859;28;45254;-74
2023/07/14 00:58:26;;;;;;;;;6.00;2.67;;;;;-147.70;100.00;61350.09;5059005;28;45375;-72
2023/07/14 01:01:01;;;;;;;;;5.00;5.00;;;;;-147.70;100.00;61350.09;5058666;28;46439;-74
2023/07/14 01:03:26;;;;;;;;;4.00;3.00;;;;;-147.70;100.00;61350.09;5058190;28;45412;-74
2023/07/14 01:05:52;;;;;;;;;5.67;4.00;;;;;-147.70;100.00;61350.09;5058716;28;45265;-73
2023/07/14 01:08:19;;;;;;;;;6.00;3.67;;;;;-147.70;100.00;61350.09;5059013;28;45476;-73
2023/07/14 01:10:45;;;;;;;;;4.00;3.00;;;;;-147.70;100.00;61350.09;5056749;28;45462;-73
2023/07/14 01:13:11;;;;;;;;;5.00;3.00;;;;;-147.70;100.00;61350.09;5058355;28;45269;-75
2023/07/14 01:15:40;;;;;;;;;5.00;3.00;;;;;-147.70;100.00;61350.09;5058466;28;45320;-74
2023/07/14 01:18:08;;;;;;;;;5.00;4.00;;;;;-147.70;100.00;61350.09;5058801;28;45237;-74
2023/07/14 01:20:37;;;;;;;;;5.33;4.00;;;;;-147.70;100.00;61350.09;5058393;28;46193;-73
2023/07/14 01:23:05;;;;;;;;;6.00;2.00;;;;;-147.70;100.00;61350.09;5058254;28;45443;-73
2023/07/14 01:25:36;;;;;;;;;4.00;4.00;;;;;-147.70;100.00;61350.09;5057941;28;45914;-76
2023/07/14 01:28:04;;;;;;;;;7.00;3.00;;;;;-147.70;100.00;61350.09;5058800;28;45408;-73
2023/07/14 01:30:32;;;;;;;;;3.67;2.33;;;;;-147.70;100.00;61350.09;5047065;28;47621;-73
2023/07/14 01:32:58;;;;;;;;;8.00;2.00;;;;;-147.70;100.00;61350.09;5052325;28;45420;-73
2023/07/14 01:35:38;;;;;;;;;9.00;4.33;;;;;-147.70;100.00;61350.09;5058424;28;45342;-74
2023/07/14 01:38:03;;;;;;;;;3.33;2.00;;;;;-147.70;100.00;61350.09;5058469;28;45336;-74
2023/07/14 01:40:31;;;;;;;;;2.00;2.00;;;;;-147.70;100.00;61350.09;5052660;28;46196;-75
2023/07/14 01:42:59;;;;;;;;;4.00;4.00;;;;;-147.70;100.00;61350.09;5038064;28;45285;-76
2023/07/14 01:45:31;;;;;;;;;7.67;3.67;;;;;-147.70;100.00;61350.09;5037749;28;45414;-75
2023/07/14 01:48:00;;;;;;;;;4.00;4.00;;;;;-147.70;100.00;61350.09;5038108;28;45313;-73
2023/07/14 01:50:32;;;;;;;;;4.00;3.00;;;;;-147.70;100.00;61350.09;5046429;28;45417;-73
2023/07/14 01:53:06;;;;;;;;;4.67;3.00;;;;;-147.70;100.00;61350.09;5057947;28;45437;-75
2023/07/14 01:55:34;;;;;;;;;3.67;3.33;;;;;-147.70;100.00;61350.09;5057984;28;45252;-74
2023/07/14 01:58:08;;;;;;;;;2.00;2.00;;;;;-147.70;100.00;61350.09;5046999;28;45537;-74
2023/07/14 02:00:35;;;;;;;;;4.33;2.33;;;;;-147.70;100.00;61350.09;5041819;28;45631;-73
2023/07/14 02:03:04;;;;;;;;;5.33;3.33;;;;;-147.70;100.00;61350.09;5057413;28;45398;-75
2023/07/14 02:05:33;;;;;;;;;3.00;3.00;;;;;-147.70;100.00;61350.09;5057689;28;45474;-74
2023/07/14 02:08:02;;;;;;;;;3.33;3.33;;;;;-147.70;100.00;61350.09;5058084;28;45384;-75
2023/07/14 02:10:29;;;;;;;;;3.67;3.00;;;;;-147.70;100.00;61350.09;5057430;28;46800;-73
2023/07/14 02:12:55;;;;;;;;;3.67;3.67;;;;;-147.70;100.00;61350.09;5057536;28;45353;-72
2023/07/14 02:15:26;;;;;;;;;4.75;3.25;;;;;-147.70;100.00;61350.09;5053001;28;45341;-74
2023/07/14 02:17:54;;;;;;;;;3.67;3.00;;;;;-147.70;100.00;61350.09;5037714;28;45242;-78
2023/07/14 02:20:28;;;;;;;;;4.00;4.00;;;;;-147.70;100.00;61350.09;5037345;28;46538;-70
2023/07/14 02:22:55;;;;;;;;;5.67;3.67;;;;;-147.70;100.00;61350.09;5037537;28;45278;-73
2023/07/14 02:25:25;;;;;;;;;7.67;3.00;;;;;-147.70;100.00;61350.09;5037432;28;45885;-73
2023/07/14 02:27:51;;;;;;;;;6.67;5.00;;;;;-147.70;100.00;61350.09;5037379;28;45308;-75
2023/07/14 02:30:19;;;;;;;;;5.33;4.00;;;;;-147.70;100.00;61350.09;5042861;28;46407;-73
2023/07/14 02:32:53;;;;;;;;;3.00;3.00;;;;;-147.70;100.00;61350.09;5057188;28;45232;-77
2023/07/14 02:35:22;;;;;;;;;7.33;5.00;;;;;-147.70;100.00;61350.09;5057351;28;45344;-72
2023/07/14 02:38:04;;;;;;;;;5.00;3.00;;;;;-147.70;100.00;61350.09;5059795;28;45316;-72
2023/07/14 02:40:35;;;;;;;;;5.00;3.67;;;;;-147.70;100.00;61350.09;5063626;28;46393;-72
2023/07/14 02:43:07;;;;;;;;;6.00;3.00;;;;;-147.70;100.00;61350.09;5062258;28;45569;-75
2023/07/14 02:45:37;;;;;;;;;4.00;2.00;;;;;-147.70;100.00;61350.09;5043750;28;45362;-72
2023/07/14 02:48:06;;;;;;;;;4.00;3.33;;;;;-147.70;100.00;61350.09;5044319;28;45401;-71
2023/07/14 02:50:31;;;;;;;;;5.00;4.00;;;;;-147.70;100.00;61350.09;5043899;28;45385;-73
2023/07/14 02:52:56;;;;;;;;;7.67;3.67;;;;;-147.70;100.00;61350.09;5043779;28;45293;-72
2023/07/14 02:55:22;;;;;;;;;3.67;2.33;;;;;-147.70;100.00;61350.09;5043874;28;45350;-71
2023/07/14 02:57:47;;;;;;;;;5.67;5.00;;;;;-147.70;100.00;61350.09;5051172;28;45519;-73
2023/07/14 03:00:15;;;;;;;;;4.00;4.00;;;;;-147.70;100.00;61350.09;5063830;28;45493;-78
2023/07/14 03:02:40;;;;;;;;;3.33;3.33;;;;;-147.70;100.00;61350.09;5063181;28;45468;-75
2023/07/14 03:05:06;;;;;;;;;4.67;3.00;;;;;-147.70;100.00;61350.09;5062947;28;45368;-73
2023/07/14 03:07:34;;;;;;;;;11.00;4.00;;;;;-147.70;100.00;61350.09;5063969;28;45394;-76
2023/07/14 03:09:59;;;;;;;;;4.33;4.33;;;;;-147.70;100.00;61350.09;5063634;28;45881;-75
2023/07/14 03:12:25;;;;;;;;;6.33;4.67;;;;;-147.70;100.00;61350.09;5057152;28;45243;-76
2023/07/14 03:14:51;;;;;;;;;9.00;4.33;;;;;-147.70;100.00;61350.09;5053319;28;45514;-75
2023/07/14 03:17:16;;;;;;;;;5.67;3.33;;;;;-147.70;100.00;61350.09;5063643;28;45522;-76
2023/07/14 03:19:42;;;;;;;;;5.00;4.00;;;;;-147.70;100.00;61350.09;5063520;28;46609;-76
2023/07/14 03:22:07;;;;;;;;;4.00;3.33;;;;;-147.70;100.00;61350.09;5063551;28;45196;-75
2023/07/14 03:24:32;;;;;;;;;5.67;5.00;;;;;-147.70;100.00;61350.09;5063626;28;45980;-73
2023/07/14 03:26:58;;;;;;;;;6.33;6.33;;;;;-147.70;100.00;61350.09;5062950;28;45413;-72
2023/07/14 03:29:24;;;;;;;;;4.33;4.00;;;;;-147.70;100.00;61350.09;5043051;28;47519;-76
2023/07/14 03:31:49;;;;;;;;;7.67;5.00;;;;;-147.70;100.00;61350.09;5042975;28;46066;-77
2023/07/14 03:34:16;;;;;;;;;7.67;6.00;;;;;-147.70;100.00;61350.09;5043203;28;45322;-76
2023/07/14 03:36:42;;;;;;;;;7.00;5.00;;;;;-147.70;100.00;61350.09;5043510;28;45344;-77
2023/07/14 03:39:25;;;;;;;;;4.00;4.00;;;;;-147.70;100.00;61350.09;5042947;28;45632;-75
2023/07/14 03:41:56;;;;;;;;;6.00;4.33;;;;;-147.70;100.00;61350.09;5042995;28;45504;-76
2023/07/14 03:44:22;;;;;;;;;4.67;4.67;;;;;-147.70;100.00;61350.09;5043348;28;45210;-75
2023/07/14 03:46:48;;;;;;;;;5.33;4.00;;;;;-147.70;100.00;61350.09;5043357;28;45510;-75
2023/07/14 03:49:14;;;;;;;;;5.33;3.00;;;;;-147.70;100.00;61350.09;5040690;28;47186;-75
2023/07/14 03:51:40;;;;;;;;;6.33;5.33;;;;;-147.70;100.00;61350.09;5039396;28;45412;-75
2023/07/14 03:54:07;;;;;;;;;5.00;4.00;;;;;-147.70;100.00;61350.09;5039746;28;45411;-76
2023/07/14 03:56:32;;;;;;;;;4.33;4.00;;;;;-147.70;100.00;61350.09;5040146;28;45411;-76
2023/07/14 03:58:57;;;;;;;;;3.00;2.00;;;;;-147.70;100.00;61350.09;5059822;28;45785;-77
2023/07/14 04:01:25;;;;;;;;;8.67;5.67;;;;;-147.70;100.00;61350.09;5059567;28;45301;-77
2023/07/14 04:03:50;;;;;;;;;7.00;3.33;;;;;-147.70;100.00;61350.09;5059484;28;45439;-75
2023/07/14 04:06:16;;;;;;;;;4.67;4.67;;;;;-147.70;100.00;61350.09;5059842;28;45348;-75
2023/07/14 04:08:43;;;;;;;;;5.00;4.33;;;;;-147.70;100.00;61350.09;5059487;28;46380;-74
2023/07/14 04:11:10;;;;;;;;;5.00;5.00;;;;;-147.70;100.00;61350.09;5044600;28;45491;-75
2023/07/14 04:13:36;;;;;;;;;13.00;6.33;;;;;-147.70;100.00;61350.09;5039427;28;45729;-75
2023/07/14 04:16:03;;;;;;;;;7.33;6.00;;;;;-147.70;100.00;61350.09;5047816;28;45348;-76
2023/07/14 04:18:29;;;;;;;;;5.00;4.00;;;;;-147.70;100.00;61350.09;5059190;28;46529;-76
2023/07/14 04:21:02;;;;;;;;;3.33;3.33;;;;;-147.70;100.00;61350.09;5059249;28;45257;-76
2023/07/14 04:23:27;;;;;;;;;5.00;3.67;;;;;-147.70;100.00;61350.09;5059561;28;45312;-77
2023/07/14 04:25:54;;;;;;;;;9.00;9.00;;;;;-147.70;100.00;61350.09;5059763;28;45854;-77
2023/07/14 04:28:19;;;;;;;;;7.67;5.33;;;;;-147.70;100.00;61350.09;5059176;28;45588;-76
2023/07/14 04:30:55;;;;;;;;;9.00;7.00;;;;;-147.70;100.00;61350.09;5058761;28;45482;-78
2023/07/14 04:33:21;;;;;;;;;6.00;5.00;;;;;-147.70;100.00;61350.09;5059112;28;45634;-78
2023/07/14 04:35:51;;;;;;;;;7.00;5.00;;;;;-147.70;100.00;61350.09;5059221;28;45173;-78
2023/07/14 04:38:17;;;;;;;;;6.00;5.00;;;;;-147.70;100.00;61350.09;5059125;28;45511;-76
2023/07/14 04:40:44;;;;;;;;;32.00;31.33;;;;;-147.70;100.00;61350.09;5057067;28;45233;-77
2023/07/14 04:43:09;;;;;;;;;12.67;12.67;;;;;-147.70;100.00;61350.09;5054009;28;45566;-78
2023/07/14 04:45:39;;;;;;;;;9.67;9.67;;;;;-147.70;100.00;61350.09;5039021;28;45285;-79
2023/07/14 04:48:11;;;;;;;;;7.67;7.00;;;;;-147.70;100.00;61350.09;5038812;28;45424;-77
2023/07/14 04:50:36;;;;;;;;;12.33;8.00;;;;;-147.70;100.00;61350.09;5055885;28;45246;-78
2023/07/14 04:53:06;;;;;;;;;14.33;7.00;;;;;-147.70;100.00;61350.09;5058902;28;45344;-77
2023/07/14 04:55:36;;;;;;;;;11.33;5.00;;;;;-147.70;100.00;61350.09;5059023;28;45416;-75
2023/07/14 04:58:01;;;;;;;;;7.67;5.00;;;;;-147.70;100.00;61350.09;5058818;28;45431;-77
2023/07/14 05:00:27;;;;;;;;;5.33;5.33;;;;;-147.70;100.00;61350.09;5058470;28;45323;-81
2023/07/14 05:02:52;;;;;;;;;10.00;6.00;;;;;-147.70;100.00;61350.09;5058491;28;45241;-75
2023/07/14 05:05:20;;;;;;;;;7.00;6.00;;;;;-147.70;100.00;61350.09;5042642;28;45245;-81
2023/07/14 05:07:48;;;;;;;;;9.00;6.67;;;;;-147.70;100.00;61350.09;5047314;28;46152;-78
2023/07/14 05:10:14;;;;;;;;;7.33;6.67;;;;;-147.70;100.00;61350.09;5058584;28;45397;-77
2023/07/14 05:12:39;;;;;;;;;8.00;5.33;;;;;-147.70;100.00;61350.09;5043602;28;45344;-76
2023/07/14 05:15:06;;;;;;;;;3.33;3.00;;;;;-147.70;100.00;61350.09;5038511;28;45523;-77
2023/07/14 05:17:33;;;;;;;;;7.00;5.00;;;;;-147.70;100.00;61350.09;5038189;28;45329;-77
2023/07/14 05:19:59;;;;;;;;;7.33;5.00;;;;;-147.70;100.00;61350.09;5038276;28;45460;-75
2023/07/14 05:22:24;;;;;;;;;6.33;5.00;;;;;-147.70;100.00;61350.09;5039261;28;45318;-76
2023/07/14 05:24:49;;;;;;;;;6.00;5.67;;;;;-147.70;100.00;61350.09;5038380;28;45520;-76
2023/07/14 05:27:15;;;;;;;;;11.67;7.00;;;;;-147.70;100.00;61350.09;5037905;28;45456;-74
2023/07/14 05:29:41;;;;;;;;;5.00;4.00;;;;;-147.70;100.00;61350.09;5038307;28;45321;-74
2023/07/14 05:32:06;;;;;;;;;6.33;6.00;;;;;-147.70;100.00;61350.09;5053152;28;45348;-74
2023/07/14 05:34:32;;;;;;;;;7.67;6.00;;;;;-147.70;100.00;61350.09;5058507;28;45538;-74
2023/07/14 05:36:57;;;;;;;;;7.33;6.00;;;;;-147.70;100.00;61350.09;5058050;28;46281;-73
2023/07/14 05:39:22;;;;;;;;;7.00;6.33;;;;;-147.70;100.00;61350.09;5054596;28;45372;-76
2023/07/14 05:41:48;;;;;;;;;8.33;7.00;;;;;-147.70;100.00;61350.09;5039240;28;45633;-74
2023/07/14 05:44:14;;;;;;;;;3.67;3.00;;;;;-147.70;100.00;61350.09;5039373;28;45281;-73
2023/07/14 05:46:40;;;;;;;;;6.00;5.00;;;;;-147.70;100.00;61350.09;5038010;28;45685;-76
2023/07/14 05:49:05;;;;;;;;;5.33;5.00;;;;;-147.70;100.00;61350.09;5037834;28;45368;-73
2023/07/14 05:51:31;;;;;;;;;15.33;13.67;;;;;-147.70;100.00;61350.09;5046709;28;45495;-74
2023/07/14 05:53:56;;;;;;;;;9.67;6.00;;;;;-147.70;100.00;61350.09;5056374;28;45523;-78
2023/07/14 05:56:22;;;;;;;;;6.33;6.33;;;;;-147.70;100.00;61350.09;5057792;28;46454;-79
2023/07/14 05:58:47;;;;;;;;;8.00;6.33;;;;;-147.70;100.00;61350.09;5050490;28;45283;-72
2023/07/14 06:01:13;;;;;;;;;5.00;5.00;;;;;-147.70;100.00;61350.09;5037572;28;45233;-74
2023/07/14 06:03:38;;;;;;;;;7.67;7.33;;;;;-147.70;100.00;61350.09;5037561;28;45442;-75
2023/07/14 06:06:05;;;;;;;;;10.67;6.67;;;;;-147.70;100.00;61350.09;5038597;28;45639;-74
2023/07/14 06:08:30;;;;;;;;;5.67;5.00;;;;;-147.70;100.00;61350.09;5037761;28;45502;-75
2023/07/14 06:10:56;;;;;;;;;8.67;5.33;;;;;-147.70;100.00;61350.09;5037805;28;45254;-75
2023/07/14 06:13:21;;;;;;;;;13.67;12.67;;;;;-147.70;100.00;61350.09;5056652;28;45328;-76
2023/07/14 06:15:50;;;;;;;;;8.00;4.00;;;;;-147.70;100.00;61350.09;5042621;28;45535;-75
2023/07/14 06:18:16;;;;;;;;;6.00;4.00;;;;;-147.70;100.00;61350.09;5047236;28;45253;-75
2023/07/14 06:20:42;;;;;;;;;4.00;4.00;;;;;-147.70;100.00;61350.09;5057205;28;45415;-77
2023/07/14 06:23:07;;;;;;;;;6.00;5.33;;;;;-147.70;100.00;61350.09;5048786;28;45254;-74
2023/07/14 06:25:33;;;;;;;;;10.00;5.00;;;;;-147.70;100.00;61350.09;5037223;28;46877;-76
2023/07/14 06:27:59;;;;;;;;;4.67;4.00;;;;;-147.70;100.00;61350.09;5037185;28;45597;-78
2023/07/14 06:30:25;;;;;;;;;5.00;5.00;;;;;-147.70;100.00;61350.09;5039814;28;45388;-76
2023/07/14 06:32:51;;;;;;;;;3.67;2.67;;;;;-147.70;100.00;61350.09;5053189;28;45361;-75
2023/07/14 06:35:17;;;;;;;;;12.00;8.67;;;;;-147.70;100.00;61350.09;5037159;28;47422;-79
2023/07/14 06:37:42;;;;;;;;;8.67;4.00;;;;;-147.70;100.00;61350.09;5037190;28;45397;-78
2023/07/14 06:40:09;;;;;;;;;3.00;1.33;;;;;-147.70;100.00;61350.09;5054967;28;45856;-74
2023/07/14 06:42:35;;;;;;;;;5.00;5.00;;;;;-147.70;100.00;61350.09;5056360;28;45442;-75
2023/07/14 06:45:03;;;;;;;;;5.33;4.00;;;;;-147.70;100.00;61350.09;5045319;28;46201;-75
2023/07/14 06:47:29;;;;;;;;;5.00;4.33;;;;;-147.70;100.00;61350.09;5056730;28;45463;-76
2023/07/14 06:49:55;;;;;;;;;3.33;3.33;;;;;-147.70;100.00;61350.09;5056089;28;45735;-76
2023/07/14 06:52:20;;;;;;;;;5.67;3.67;;;;;-147.70;100.00;61350.09;5056634;28;45275;-78
2023/07/14 06:54:46;;;;;;;;;5.00;4.00;;;;;-147.70;100.00;61350.09;5055143;28;47137;-77
2023/07/14 06:57:11;;;;;;;;;7.33;3.33;;;;;-147.70;100.00;61350.09;5056843;28;45309;-77
2023/07/14 06:59:37;;;;;;;;;4.00;4.00;;;;;-147.70;100.00;61350.09;5057018;28;45309;-77
2023/07/14 07:02:02;;;;;;;;;3.67;2.00;;;;;-147.70;100.00;61350.09;5056971;28;45518;-73
2023/07/14 07:04:28;;;;;;;;;2.33;2.00;;;;;-147.70;100.00;61350.09;5056273;28;47015;-76
2023/07/14 07:06:53;;;;;;;;;4.33;3.67;;;;;-147.70;100.00;61350.09;5052243;28;45230;-73
2023/07/14 07:09:19;;;;;;;;;4.00;2.00;;;;;-147.70;100.00;61350.09;5056170;28;45294;-72
2023/07/14 07:11:44;;;;;;;;;5.33;3.00;;;;;-147.70;100.00;61350.09;5056004;28;45485;-74
2023/07/14 07:14:10;;;;;;;;;2.33;2.33;;;;;-147.70;100.00;61350.09;5056533;28;46261;-77
2023/07/14 07:16:36;;;;;;;;;3.00;1.00;;;;;-147.70;100.00;61350.09;5056855;28;45420;-79
2023/07/14 07:19:01;;;;;;;;;2.67;1.33;;;;;-147.70;100.00;61350.09;5055002;28;45451;-77
2023/07/14 07:21:27;;;;;;;;;2.00;2.00;;;;;-147.70;100.00;61350.09;5056829;28;45204;-76
2023/07/14 07:23:52;;;;;;;;;5.00;2.00;;;;;-147.70;100.00;61350.09;5057424;28;45284;-75
2023/07/14 07:26:18;;;;;;;;;3.67;2.67;;;;;-147.70;100.00;61350.09;5060303;28;45456;-76
2023/07/14 07:28:43;;;;;;;;;3.67;3.67;;;;;-147.70;100.00;61350.09;5059156;28;45233;-77
2023/07/14 07:31:10;;;;;;;;;4.33;3.00;;;;;-147.70;100.00;61350.09;5040444;28;45423;-79
2023/07/14 07:33:37;;;;;;;;;4.00;2.67;;;;;-147.70;100.00;61350.09;5046010;28;47077;-78
2023/07/14 07:36:14;;;;;;;;;3.00;3.00;;;;;-147.70;100.00;61350.09;5051602;28;45403;-78
2023/07/14 07:38:48;;;;;;;;;3.33;2.00;;;;;-147.70;100.00;61350.09;5056669;28;45450;-76
2023/07/14 07:41:16;;;;;;;;;1.33;1.33;;;;;-147.70;100.00;61350.09;5051668;28;45441;-79
2023/07/14 07:43:42;;;;;;;;;4.33;3.00;;;;;-147.70;100.00;61350.09;5059837;28;46736;-78
2023/07/14 07:46:08;;;;;;;;;3.00;2.67;;;;;-147.70;100.00;61350.09;5055238;28;45256;-78
2023/07/14 07:48:35;;;;;;;;;3.00;3.00;;;;;-147.70;100.00;61350.09;5059924;28;45248;-80
2023/07/14 07:51:02;;;;;;;;;3.00;2.67;;;;;-147.70;100.00;61350.09;5052883;28;45367;-79
2023/07/14 07:53:28;;;;;;;;;2.67;2.00;;;;;-147.70;100.00;61350.09;5039627;28;46369;-78
2023/07/14 07:55:58;;;;;;;;;2.00;2.00;;;;;-147.70;100.00;61350.09;5043839;28;45698;-79
2023/07/14 07:58:26;;;;;;;;;2.33;2.33;;;;;-147.70;100.00;61350.09;5040912;28;45198;-77
2023/07/14 08:00:58;;;;;;;;;1.67;1.67;;;;;-147.70;100.00;61350.09;5043513;28;45500;-76
2023/07/14 08:03:23;;;;;;;;;5.00;3.00;;;;;-147.70;100.00;61350.09;5045415;28;46516;-79
2023/07/14 08:05:49;;;;;;;;;3.33;3.33;;;;;-147.70;100.00;61350.09;5059752;28;45434;-78
2023/07/14 08:08:15;;;;;;;;;4.67;3.00;;;;;-147.70;100.00;61350.09;5058822;28;45451;-78
2023/07/14 08:10:43;;;;;;;;;4.00;4.00;;;;;-147.70;100.00;61350.09;5059322;28;45276;-76
2023/07/14 08:13:13;;;;;;;;;4.00;4.00;;;;;-147.70;100.00;61350.09;5052934;28;47353;-80
2023/07/14 08:15:38;;;;;;;;;5.00;5.00;;;;;-147.70;100.00;61350.09;5039477;28;45399;-79
2023/07/14 08:18:06;;;;;;;;;6.00;4.00;;;;;-147.70;100.00;61350.09;5058218;28;46134;-80
2023/07/14 08:20:32;;;;;;;;;9.00;5.67;;;;;-147.70;100.00;61350.09;5055510;28;45440;-83
2023/07/14 08:22:57;;;;;;;;;5.00;4.00;;;;;-147.70;100.00;61350.09;5057856;28;45537;-78
2023/07/14 08:25:23;;;;;;;;;6.00;4.00;;;;;-147.70;100.00;61350.09;5057210;28;45725;-79
2023/07/14 08:27:49;;;;;;;;;8.33;4.33;;;;;-147.70;100.00;61350.09;5057304;28;45398;-82
2023/07/14 08:30:15;;;;;;;;;7.00;4.67;;;;;-147.70;100.00;61350.09;5053169;28;45395;-79
2023/07/14 08:32:40;;;;;;;;;3.00;3.00;;;;;-147.70;100.00;61350.09;5046518;28;46554;-81
2023/07/14 08:35:06;;;;;;;;;4.33;3.00;;;;;-147.70;100.00;61350.09;5048454;28;45447;-80
2023/07/14 08:37:32;;;;;;;;;4.67;4.67;;;;;-147.70;100.00;61350.09;5047618;28;45309;-80
2023/07/14 08:39:58;;;;;;;;;3.67;3.00;;;;;-147.70;100.00;61350.09;5048154;28;45232;-85
2023/07/14 08:42:58;;;;;;;;;10.00;10.00;;;;;-147.70;100.00;61350.09;5048835;28;46366;-78
2023/07/14 08:45:38;;;;;;;;;6.00;3.00;;;;;-147.70;100.00;61350.09;5026856;28;45498;-79
2023/07/14 08:48:25;;;;;;;;;3.00;2.67;;;;;-147.70;100.00;61350.09;5025965;28;45484;-81
2023/07/14 08:50:54;;;;;;;;;2.33;2.33;;;;;-147.70;100.00;61350.09;5021361;28;45449;-76
2023/07/14 08:53:24;;;;;;;;;3.00;2.00;;;;;-147.70;100.00;61350.09;5028697;28;45733;-80
2023/07/14 08:55:51;;;;;;;;;4.00;2.33;;;;;-147.70;100.00;61350.09;5029418;28;45486;-80
2023/07/14 08:58:22;;;;;;;;;3.00;3.00;;;;;-147.70;100.00;61350.09;5026131;28;45475;-81
2023/07/14 09:00:50;;;;;;;;;4.67;3.33;;;;;-147.70;100.00;61350.09;5026949;28;45638;-82
2023/07/14 09:03:35;;;;;;;;;2.33;2.33;;;;;-147.70;100.00;61350.09;5025679;28;46249;-80
2023/07/14 09:06:10;;;;;;;;;8.00;2.00;;;;;-147.70;100.00;61350.09;5018342;28;45479;-81
2023/07/14 09:08:36;;;;;;;;;3.67;2.67;;;;;-147.70;100.00;61350.09;5025024;28;45523;-82
2023/07/14 09:11:12;;;;;;;;;5.00;3.00;;;;;-147.70;100.00;61350.09;5024314;28;45741;-80
2023/07/14 09:13:54;;;;;;;;;9.00;6.67;;;;;-147.70;100.00;61350.09;5024077;28;46618;-67
2023/07/14 09:16:23;;;;;;;;;4.67;2.67;;;;;-147.70;100.00;61350.09;5025671;28;45569;-79
2023/07/14 09:19:05;;;;;;;;;3.00;3.00;;;;;-147.70;100.00;61350.09;5026702;28;45466;-67
2023/07/14 09:21:56;;;;;;;;;3.67;3.00;;;;;-147.70;100.00;61350.09;5042264;28;45496;-71
2023/07/14 09:24:52;;;;;;;;;2.33;2.00;;;;;-147.70;100.00;61350.09;5048151;28;47119;-68
2023/07/14 09:27:25;;;;;;;;;4.00;4.00;;;;;-147.70;100.00;61350.09;5050238;28;45381;-70
2023/07/14 09:29:52;;;;;;;;;3.33;3.00;;;;;-147.70;100.00;61350.09;5049613;28;45175;-66
2023/07/14 09:32:42;;;;;;;;;2.67;2.67;;;;;-147.70;100.00;61350.09;5048731;28;45233;-72
2023/07/14 09:35:20;;;;;;;;;4.33;3.67;;;;;-147.70;100.00;61350.09;5047845;28;45527;-74
2023/07/14 09:38:10;;;;;;;;;4.67;3.00;;;;;-147.70;100.00;61350.09;5047677;28;45388;-74
2023/07/14 09:40:40;;;;;;;;;3.00;3.00;;;;;-147.70;100.00;61350.09;5050002;28;45427;-70
2023/07/14 09:43:06;;;;;;;;;3.00;3.00;;;;;-147.70;100.00;61350.09;5050147;28;45321;-71
2023/07/14 09:45:37;;;;;;;;;6.00;3.33;;;;;-147.70;100.00;61350.09;5048802;28;47111;-72
2023/07/14 09:48:15;;;;;;;;;4.00;3.00;;;;;-147.70;100.00;61350.09;5044693;28;45446;-75
2023/07/14 09:51:05;;;;;;;;;5.00;3.00;;;;;-147.70;100.00;61350.09;5050741;28;45591;-76
2023/07/14 09:53:33;;;;;;;;;2.33;2.33;;;;;-147.70;100.00;61350.09;5043523;28;45265;-74
2023/07/14 09:56:05;;;;;;;;;4.00;4.00;;;;;-147.70;100.00;61350.09;5037547;28;46067;-74
2023/07/14 09:58:32;;;;;;;;;3.00;3.00;;;;;-147.70;100.00;61350.09;5039070;28;45522;-72
2023/07/14 10:01:04;;;;;;;;;2.00;2.00;;;;;-147.70;100.00;61350.09;5057615;28;45261;-70
2023/07/14 10:03:55;;;;;;;;;2.67;2.33;;;;;-147.70;100.00;61350.09;5057467;28;45238;-81
2023/07/14 10:06:22;;;;;;;;;5.33;3.00;;;;;-147.70;100.00;61350.09;5056208;28;45630;-71
2023/07/14 10:08:59;;;;;;;;;3.00;3.00;;;;;-147.70;100.00;61350.09;5053859;28;45413;-72
2023/07/14 10:11:50;;;;;;;;;4.00;3.33;;;;;-147.70;100.00;61350.09;5037265;28;45491;-75
2023/07/14 10:14:35;;;;;;;;;2.67;2.67;;;;;-147.70;100.00;61350.09;5044842;28;45221;-77
2023/07/14 10:17:02;;;;;;;;;3.33;2.00;;;;;-147.70;100.00;61350.09;5057229;28;45348;-79
2023/07/14 10:19:43;;;;;;;;;3.00;2.00;;;;;-147.70;100.00;61350.09;5056914;28;45447;-75
2023/07/14 10:22:17;;;;;;;;;3.00;3.00;;;;;-147.70;100.00;61350.09;5058042;27;45293;-76
2023/07/14 10:24:56;;;;;;;;;1.67;1.00;;;;;-147.70;100.00;61350.09;5046992;28;45350;-72
2023/07/14 10:27:28;;;;;;;;;5.33;4.00;;;;;-147.70;100.00;61350.09;5036935;28;46590;-73
2023/07/14 10:30:05;;;;;;;;;2.33;2.33;;;;;-147.70;100.00;61350.09;5048636;28;45368;-72
2023/07/14 10:32:44;;;;;;;;;2.33;2.33;;;;;-147.70;100.00;61350.09;5056990;28;45461;-74
2023/07/14 10:35:24;;;;;;;;;4.00;2.67;;;;;-147.70;100.00;61350.09;5057244;28;45373;-74
2023/07/14 10:38:10;;;;;;;;;2.33;2.33;;;;;-147.70;100.00;61350.09;5057005;28;47445;-70
2023/07/14 10:40:41;;;;;;;;;4.33;4.00;;;;;-147.70;100.00;61350.09;5039806;28;45421;-72
2023/07/14 10:43:15;;;;;;;;;3.00;3.00;;;;;-147.70;100.00;61350.09;5037024;28;45336;-72
2023/07/14 10:45:46;;;;;;;;;2.00;2.00;;;;;-147.70;100.00;61350.09;5037034;28;45492;-69
2023/07/14 10:48:22;;;;;;;;;3.00;3.00;;;;;-147.70;100.00;61350.09;5036729;28;46209;-70
2023/07/14 10:51:08;;;;;;;;;3.33;3.00;;;;;-147.70;100.00;61350.09;5036670;28;45466;-70
2023/07/14 10:53:49;;;;;;;;;2.67;2.67;;;;;-147.70;100.00;61350.09;5036508;28;45472;-78
2023/07/14 10:56:27;;;;;;;;;3.00;3.00;;;;;-147.70;100.00;61350.09;5036778;28;45408;-76
2023/07/14 10:58:57;;;;;;;;;2.67;2.67;;;;;-147.70;100.00;61350.09;5039065;28;47361;-77
2023/07/14 11:01:34;;;;;;;;;2.67;2.67;;;;;-147.70;100.00;61350.09;5052870;28;45504;-75
2023/07/14 11:04:28;;;;;;;;;2.00;2.00;;;;;-147.70;100.00;61350.09;5060165;28;45362;-75
2023/07/14 11:06:55;;;;;;;;;2.67;2.00;;;;;-147.70;100.00;61350.09;5055590;28;45456;-76
2023/07/14 11:09:20;;;;;;;;;3.00;1.67;;;;;-147.70;100.00;61350.09;5040150;28;46814;-77
2023/07/14 11:11:54;;;;;;;;;3.67;3.00;;;;;-147.70;100.00;61350.09;5040115;28;45249;-87
2023/07/14 11:14:28;;;;;;;;;5.00;4.00;;;;;-147.70;100.00;61350.09;5052296;28;45434;-75
2023/07/14 11:16:59;;;;;;;;;3.00;3.00;;;;;-147.70;100.00;61350.09;5058731;28;45339;-79
2023/07/14 11:19:32;;;;;;;;;3.33;3.33;;;;;-147.70;100.00;61350.09;5058375;28;46432;-74